sensor_id;sensor_type;location;lat;lon;timestamp;P1;durP1;ratioP1;P2;durP2;ratioP2
78838;SDS011;68405;47.190;27.558;2023-04-01T00:00:17;10.90;;;6.70;;
78838;SDS011;68405;47.190;27.558;2023-04-01T00:03:09;9.10;;;6.20;;
78838;SDS011;68405;47.190;27.558;2023-04-01T00:05:41;8.90;;;6.40;;
78838;SDS011;68405;47.190;27.558;2023-04-01T00:08:13;9.70;;;6.00;;
78838;SDS011;68405;47.190;27.558;2023-04-01T00:10:45;9.20;;;5.90;;
78838;SDS011;68405;47.190;27.558;2023-04-01T00:13:17;10.70;;;7.50;;
78838;SDS011;68405;47.190;27.558;2023-04-01T00:15:49;11.70;;;7.30;;
78838;SDS011;68405;47.190;27.558;2023-04-01T00:18:21;13.10;;;6.90;;
78838;SDS011;68405;47.190;27.558;2023-04-01T00:20:53;10.40;;;7.50;;
78838;SDS011;68405;47.190;27.558;2023-04-01T00:23:25;13.80;;;8.80;;
78838;SDS011;68405;47.190;27.558;2023-04-01T00:25:58;12.90;;;8.70;;
78838;SDS011;68405;47.190;27.558;2023-04-01T00:28:31;13.10;;;8.70;;
78838;SDS011;68405;47.190;27.558;2023-04-01T00:31:05;16.00;;;8.40;;
78838;SDS011;68405;47.190;27.558;2023-04-01T00:33:38;14.70;;;10.10;;
78838;SDS011;68405;47.190;27.558;2023-04-01T00:36:11;12.80;;;8.80;;
78838;SDS011;68405;47.190;27.558;2023-04-01T00:38:44;13.90;;;9.10;;
78838;SDS011;68405;47.190;27.558;2023-04-01T00:41:15;18.00;;;11.70;;
78838;SDS011;68405;47.190;27.558;2023-04-01T00:43:50;18.30;;;11.60;;
78838;SDS011;68405;47.190;27.558;2023-04-01T00:46:22;16.80;;;11.20;;
78838;SDS011;68405;47.190;27.558;2023-04-01T00:48:54;13.30;;;9.90;;
78838;SDS011;68405;47.190;27.558;2023-04-01T00:51:27;14.70;;;10.60;;
78838;SDS011;68405;47.190;27.558;2023-04-01T00:54:04;16.90;;;10.70;;
78838;SDS011;68405;47.190;27.558;2023-04-01T00:56:38;15.00;;;10.80;;
78838;SDS011;68405;47.190;27.558;2023-04-01T00:59:18;14.20;;;10.70;;
78838;SDS011;68405;47.190;27.558;2023-04-01T01:01:54;16.70;;;12.60;;
78838;SDS011;68405;47.190;27.558;2023-04-01T01:04:26;15.60;;;10.70;;
78838;SDS011;68405;47.190;27.558;2023-04-01T01:07:03;14.30;;;9.70;;
78838;SDS011;68405;47.190;27.558;2023-04-01T01:09:47;13.80;;;9.20;;
78838;SDS011;68405;47.190;27.558;2023-04-01T01:12:27;11.80;;;8.20;;
78838;SDS011;68405;47.190;27.558;2023-04-01T01:15:08;14.40;;;8.20;;
78838;SDS011;68405;47.190;27.558;2023-04-01T01:17:50;16.70;;;12.70;;
78838;SDS011;68405;47.190;27.558;2023-04-01T01:20:33;15.00;;;10.50;;
78838;SDS011;68405;47.190;27.558;2023-04-01T01:23:36;13.70;;;9.30;;
78838;SDS011;68405;47.190;27.558;2023-04-01T01:35:54;14.10;;;10.40;;
78838;SDS011;68405;47.190;27.558;2023-04-01T01:38:29;14.30;;;9.70;;
78838;SDS011;68405;47.190;27.558;2023-04-01T01:41:05;15.10;;;10.30;;
78838;SDS011;68405;47.190;27.558;2023-04-01T01:43:39;11.80;;;9.20;;
78838;SDS011;68405;47.190;27.558;2023-04-01T01:46:13;10.10;;;7.60;;
78838;SDS011;68405;47.190;27.558;2023-04-01T01:48:49;13.20;;;9.10;;
78838;SDS011;68405;47.190;27.558;2023-04-01T01:51:21;11.70;;;9.30;;
78838;SDS011;68405;47.190;27.558;2023-04-01T01:53:56;17.00;;;11.70;;
78838;SDS011;68405;47.190;27.558;2023-04-01T01:56:27;15.90;;;11.20;;
78838;SDS011;68405;47.190;27.558;2023-04-01T01:59:02;11.80;;;8.80;;
78838;SDS011;68405;47.190;27.558;2023-04-01T02:01:39;11.80;;;8.30;;
78838;SDS011;68405;47.190;27.558;2023-04-01T02:04:14;11.00;;;8.60;;
78838;SDS011;68405;47.190;27.558;2023-04-01T02:06:49;11.60;;;8.70;;
78838;SDS011;68405;47.190;27.558;2023-04-01T02:09:25;11.70;;;8.80;;
78838;SDS011;68405;47.190;27.558;2023-04-01T02:11:58;14.90;;;11.00;;
78838;SDS011;68405;47.190;27.558;2023-04-01T02:14:36;15.00;;;10.90;;
78838;SDS011;68405;47.190;27.558;2023-04-01T02:17:11;12.60;;;8.80;;
78838;SDS011;68405;47.190;27.558;2023-04-01T02:22:18;10.80;;;7.40;;
78838;SDS011;68405;47.190;27.558;2023-04-01T02:24:53;11.70;;;8.10;;
78838;SDS011;68405;47.190;27.558;2023-04-01T02:27:27;11.40;;;8.40;;
78838;SDS011;68405;47.190;27.558;2023-04-01T02:29:59;13.20;;;10.60;;
78838;SDS011;68405;47.190;27.558;2023-04-01T02:32:32;13.40;;;9.90;;
78838;SDS011;68405;47.190;27.558;2023-04-01T02:35:09;12.80;;;9.20;;
78838;SDS011;68405;47.190;27.558;2023-04-01T02:37:44;12.10;;;7.70;;
78838;SDS011;68405;47.190;27.558;2023-04-01T02:40:20;13.40;;;8.10;;
78838;SDS011;68405;47.190;27.558;2023-04-01T02:42:52;12.40;;;8.30;;
78838;SDS011;68405;47.190;27.558;2023-04-01T02:45:24;12.70;;;8.00;;
78838;SDS011;68405;47.190;27.558;2023-04-01T02:47:56;12.00;;;8.50;;
78838;SDS011;68405;47.190;27.558;2023-04-01T02:50:27;14.10;;;10.70;;
78838;SDS011;68405;47.190;27.558;2023-04-01T02:52:59;15.80;;;8.80;;
78838;SDS011;68405;47.190;27.558;2023-04-01T02:55:32;12.40;;;8.50;;
78838;SDS011;68405;47.190;27.558;2023-04-01T02:58:04;12.10;;;9.10;;
78838;SDS011;68405;47.190;27.558;2023-04-01T03:00:35;15.30;;;9.30;;
78838;SDS011;68405;47.190;27.558;2023-04-01T03:03:07;15.20;;;11.20;;
78838;SDS011;68405;47.190;27.558;2023-04-01T03:05:41;14.30;;;11.10;;
78838;SDS011;68405;47.190;27.558;2023-04-01T03:08:12;15.20;;;9.70;;
78838;SDS011;68405;47.190;27.558;2023-04-01T03:10:44;12.50;;;9.60;;
78838;SDS011;68405;47.190;27.558;2023-04-01T03:13:16;15.50;;;9.70;;
78838;SDS011;68405;47.190;27.558;2023-04-01T03:15:47;13.40;;;10.00;;
78838;SDS011;68405;47.190;27.558;2023-04-01T03:18:19;14.10;;;9.90;;
78838;SDS011;68405;47.190;27.558;2023-04-01T03:20:51;16.70;;;10.40;;
78838;SDS011;68405;47.190;27.558;2023-04-01T03:23:23;20.40;;;14.40;;
78838;SDS011;68405;47.190;27.558;2023-04-01T03:25:54;19.30;;;13.70;;
78838;SDS011;68405;47.190;27.558;2023-04-01T03:28:26;18.10;;;12.90;;
78838;SDS011;68405;47.190;27.558;2023-04-01T03:30:58;14.70;;;11.00;;
78838;SDS011;68405;47.190;27.558;2023-04-01T03:33:30;16.50;;;11.50;;
78838;SDS011;68405;47.190;27.558;2023-04-01T03:36:02;15.20;;;10.90;;
78838;SDS011;68405;47.190;27.558;2023-04-01T03:38:35;15.90;;;11.90;;
78838;SDS011;68405;47.190;27.558;2023-04-01T03:41:07;24.90;;;17.00;;
78838;SDS011;68405;47.190;27.558;2023-04-01T03:43:40;23.00;;;16.30;;
78838;SDS011;68405;47.190;27.558;2023-04-01T03:46:16;20.20;;;14.70;;
78838;SDS011;68405;47.190;27.558;2023-04-01T03:48:49;17.50;;;11.20;;
78838;SDS011;68405;47.190;27.558;2023-04-01T03:51:20;12.90;;;8.80;;
78838;SDS011;68405;47.190;27.558;2023-04-01T03:53:52;18.10;;;11.80;;
78838;SDS011;68405;47.190;27.558;2023-04-01T03:56:24;17.40;;;12.00;;
78838;SDS011;68405;47.190;27.558;2023-04-01T03:58:55;24.70;;;15.40;;
78838;SDS011;68405;47.190;27.558;2023-04-01T04:01:27;21.50;;;14.80;;
78838;SDS011;68405;47.190;27.558;2023-04-01T04:03:59;19.30;;;14.00;;
78838;SDS011;68405;47.190;27.558;2023-04-01T04:06:31;17.20;;;11.10;;
78838;SDS011;68405;47.190;27.558;2023-04-01T04:09:04;15.80;;;11.60;;
78838;SDS011;68405;47.190;27.558;2023-04-01T04:11:35;16.80;;;12.30;;
78838;SDS011;68405;47.190;27.558;2023-04-01T04:14:07;22.90;;;15.00;;
78838;SDS011;68405;47.190;27.558;2023-04-01T04:16:38;20.60;;;15.20;;
78838;SDS011;68405;47.190;27.558;2023-04-01T04:19:10;17.60;;;11.70;;
78838;SDS011;68405;47.190;27.558;2023-04-01T04:21:42;14.40;;;11.10;;
78838;SDS011;68405;47.190;27.558;2023-04-01T04:24:14;19.40;;;11.50;;
78838;SDS011;68405;47.190;27.558;2023-04-01T04:26:46;18.10;;;12.60;;
78838;SDS011;68405;47.190;27.558;2023-04-01T04:29:17;13.20;;;10.30;;
78838;SDS011;68405;47.190;27.558;2023-04-01T04:31:50;22.00;;;15.30;;
78838;SDS011;68405;47.190;27.558;2023-04-01T04:34:22;19.00;;;13.00;;
78838;SDS011;68405;47.190;27.558;2023-04-01T04:36:54;16.50;;;12.90;;
78838;SDS011;68405;47.190;27.558;2023-04-01T04:39:26;17.50;;;10.90;;
78838;SDS011;68405;47.190;27.558;2023-04-01T04:41:58;14.60;;;10.20;;
78838;SDS011;68405;47.190;27.558;2023-04-01T04:44:30;15.10;;;10.90;;
78838;SDS011;68405;47.190;27.558;2023-04-01T04:47:02;17.50;;;11.90;;
78838;SDS011;68405;47.190;27.558;2023-04-01T04:49:33;18.40;;;12.20;;
78838;SDS011;68405;47.190;27.558;2023-04-01T04:52:05;17.10;;;11.70;;
78838;SDS011;68405;47.190;27.558;2023-04-01T04:54:37;17.20;;;12.10;;
78838;SDS011;68405;47.190;27.558;2023-04-01T04:57:09;13.20;;;9.00;;
78838;SDS011;68405;47.190;27.558;2023-04-01T04:59:40;17.20;;;11.30;;
78838;SDS011;68405;47.190;27.558;2023-04-01T05:02:12;17.10;;;10.90;;
78838;SDS011;68405;47.190;27.558;2023-04-01T05:04:44;16.90;;;10.60;;
78838;SDS011;68405;47.190;27.558;2023-04-01T05:07:16;17.90;;;13.00;;
78838;SDS011;68405;47.190;27.558;2023-04-01T05:09:48;17.50;;;12.50;;
78838;SDS011;68405;47.190;27.558;2023-04-01T05:12:19;14.60;;;10.90;;
78838;SDS011;68405;47.190;27.558;2023-04-01T05:14:51;16.00;;;10.50;;
78838;SDS011;68405;47.190;27.558;2023-04-01T05:17:23;14.30;;;10.50;;
78838;SDS011;68405;47.190;27.558;2023-04-01T05:19:55;15.30;;;11.30;;
78838;SDS011;68405;47.190;27.558;2023-04-01T05:22:26;18.50;;;12.90;;
78838;SDS011;68405;47.190;27.558;2023-04-01T05:24:58;18.90;;;11.30;;
78838;SDS011;68405;47.190;27.558;2023-04-01T05:27:30;16.70;;;11.10;;
78838;SDS011;68405;47.190;27.558;2023-04-01T05:30:02;16.00;;;10.60;;
78838;SDS011;68405;47.190;27.558;2023-04-01T05:32:35;14.50;;;10.10;;
78838;SDS011;68405;47.190;27.558;2023-04-01T05:35:07;16.50;;;10.40;;
78838;SDS011;68405;47.190;27.558;2023-04-01T05:37:39;19.30;;;10.40;;
78838;SDS011;68405;47.190;27.558;2023-04-01T05:40:12;18.70;;;12.00;;
78838;SDS011;68405;47.190;27.558;2023-04-01T05:42:43;15.70;;;11.20;;
78838;SDS011;68405;47.190;27.558;2023-04-01T05:45:15;16.10;;;10.20;;
78838;SDS011;68405;47.190;27.558;2023-04-01T05:47:47;16.00;;;10.80;;
78838;SDS011;68405;47.190;27.558;2023-04-01T05:50:19;16.90;;;10.50;;
78838;SDS011;68405;47.190;27.558;2023-04-01T05:52:51;16.50;;;10.60;;
78838;SDS011;68405;47.190;27.558;2023-04-01T05:55:24;14.90;;;10.50;;
78838;SDS011;68405;47.190;27.558;2023-04-01T05:57:56;18.50;;;11.70;;
78838;SDS011;68405;47.190;27.558;2023-04-01T06:00:27;17.10;;;10.80;;
78838;SDS011;68405;47.190;27.558;2023-04-01T06:02:59;15.60;;;10.20;;
78838;SDS011;68405;47.190;27.558;2023-04-01T06:05:35;14.10;;;10.20;;
78838;SDS011;68405;47.190;27.558;2023-04-01T06:08:13;14.30;;;10.60;;
78838;SDS011;68405;47.190;27.558;2023-04-01T06:10:51;14.40;;;10.20;;
78838;SDS011;68405;47.190;27.558;2023-04-01T06:13:35;13.80;;;10.80;;
78838;SDS011;68405;47.190;27.558;2023-04-01T06:16:21;14.70;;;10.30;;
78838;SDS011;68405;47.190;27.558;2023-04-01T06:19:09;14.70;;;10.60;;
78838;SDS011;68405;47.190;27.558;2023-04-01T06:24:44;12.10;;;9.20;;
78838;SDS011;68405;47.190;27.558;2023-04-01T06:27:36;12.60;;;8.00;;
78838;SDS011;68405;47.190;27.558;2023-04-01T06:30:28;12.00;;;7.80;;
78838;SDS011;68405;47.190;27.558;2023-04-01T06:45:11;12.70;;;8.10;;
78838;SDS011;68405;47.190;27.558;2023-04-01T06:48:01;10.60;;;7.50;;
78838;SDS011;68405;47.190;27.558;2023-04-01T06:50:45;11.00;;;8.50;;
78838;SDS011;68405;47.190;27.558;2023-04-01T06:53:27;11.20;;;7.90;;
78838;SDS011;68405;47.190;27.558;2023-04-01T06:56:07;11.30;;;8.20;;
78838;SDS011;68405;47.190;27.558;2023-04-01T06:58:44;11.80;;;8.60;;
78838;SDS011;68405;47.190;27.558;2023-04-01T07:01:22;13.90;;;10.00;;
78838;SDS011;68405;47.190;27.558;2023-04-01T07:03:58;14.40;;;9.40;;
78838;SDS011;68405;47.190;27.558;2023-04-01T07:06:37;11.50;;;8.70;;
78838;SDS011;68405;47.190;27.558;2023-04-01T07:09:16;12.20;;;8.80;;
78838;SDS011;68405;47.190;27.558;2023-04-01T07:11:52;15.60;;;9.10;;
78838;SDS011;68405;47.190;27.558;2023-04-01T07:14:31;11.20;;;8.10;;
78838;SDS011;68405;47.190;27.558;2023-04-01T07:17:07;13.30;;;9.10;;
78838;SDS011;68405;47.190;27.558;2023-04-01T07:19:47;17.00;;;10.40;;
78838;SDS011;68405;47.190;27.558;2023-04-01T07:22:24;21.40;;;12.60;;
78838;SDS011;68405;47.190;27.558;2023-04-01T07:25:02;20.00;;;11.40;;
78838;SDS011;68405;47.190;27.558;2023-04-01T07:27:40;13.20;;;9.80;;
78838;SDS011;68405;47.190;27.558;2023-04-01T07:30:15;17.40;;;11.00;;
78838;SDS011;68405;47.190;27.558;2023-04-01T07:32:49;13.60;;;9.80;;
78838;SDS011;68405;47.190;27.558;2023-04-01T07:35:30;15.40;;;11.40;;
78838;SDS011;68405;47.190;27.558;2023-04-01T07:38:11;15.70;;;11.90;;
78838;SDS011;68405;47.190;27.558;2023-04-01T07:40:51;15.50;;;10.80;;
78838;SDS011;68405;47.190;27.558;2023-04-01T07:46:36;13.70;;;9.00;;
78838;SDS011;68405;47.190;27.558;2023-04-01T07:49:19;13.30;;;9.40;;
78838;SDS011;68405;47.190;27.558;2023-04-01T07:54:32;14.70;;;8.80;;
78838;SDS011;68405;47.190;27.558;2023-04-01T07:57:10;12.10;;;8.50;;
78838;SDS011;68405;47.190;27.558;2023-04-01T07:59:51;13.00;;;8.40;;
78838;SDS011;68405;47.190;27.558;2023-04-01T08:02:37;11.10;;;8.10;;
78838;SDS011;68405;47.190;27.558;2023-04-01T08:05:24;10.40;;;7.70;;
78838;SDS011;68405;47.190;27.558;2023-04-01T08:08:01;14.90;;;9.70;;
78838;SDS011;68405;47.190;27.558;2023-04-01T08:10:43;14.20;;;9.00;;
78838;SDS011;68405;47.190;27.558;2023-04-01T08:13:24;12.40;;;8.40;;
78838;SDS011;68405;47.190;27.558;2023-04-01T08:16:08;19.00;;;9.00;;
78838;SDS011;68405;47.190;27.558;2023-04-01T08:18:50;14.40;;;9.70;;
78838;SDS011;68405;47.190;27.558;2023-04-01T08:21:31;16.40;;;10.20;;
78838;SDS011;68405;47.190;27.558;2023-04-01T08:24:11;18.40;;;11.50;;
78838;SDS011;68405;47.190;27.558;2023-04-01T08:26:51;18.50;;;12.50;;
78838;SDS011;68405;47.190;27.558;2023-04-01T08:29:26;16.00;;;10.40;;
78838;SDS011;68405;47.190;27.558;2023-04-01T08:32:08;15.00;;;11.60;;
78838;SDS011;68405;47.190;27.558;2023-04-01T08:34:48;14.70;;;10.90;;
78838;SDS011;68405;47.190;27.558;2023-04-01T08:37:28;16.40;;;9.90;;
78838;SDS011;68405;47.190;27.558;2023-04-01T08:40:10;13.30;;;9.00;;
78838;SDS011;68405;47.190;27.558;2023-04-01T08:43:02;14.30;;;10.10;;
78838;SDS011;68405;47.190;27.558;2023-04-01T08:45:43;18.60;;;13.20;;
78838;SDS011;68405;47.190;27.558;2023-04-01T08:51:41;19.90;;;11.80;;
78838;SDS011;68405;47.190;27.558;2023-04-01T08:57:40;18.40;;;12.70;;
78838;SDS011;68405;47.190;27.558;2023-04-01T09:00:25;14.40;;;9.90;;
78838;SDS011;68405;47.190;27.558;2023-04-01T09:03:13;20.50;;;13.30;;
78838;SDS011;68405;47.190;27.558;2023-04-01T09:06:10;18.40;;;12.50;;
78838;SDS011;68405;47.190;27.558;2023-04-01T09:11:50;20.80;;;13.90;;
78838;SDS011;68405;47.190;27.558;2023-04-01T09:15:02;16.10;;;11.60;;
78838;SDS011;68405;47.190;27.558;2023-04-01T09:17:59;14.50;;;9.10;;
78838;SDS011;68405;47.190;27.558;2023-04-01T09:24:18;13.30;;;9.80;;
78838;SDS011;68405;47.190;27.558;2023-04-01T09:27:13;15.30;;;10.40;;
78838;SDS011;68405;47.190;27.558;2023-04-01T09:30:02;17.40;;;10.60;;
78838;SDS011;68405;47.190;27.558;2023-04-01T09:35:47;12.80;;;10.20;;
78838;SDS011;68405;47.190;27.558;2023-04-01T09:38:30;14.30;;;9.40;;
78838;SDS011;68405;47.190;27.558;2023-04-01T09:41:14;15.30;;;11.30;;
78838;SDS011;68405;47.190;27.558;2023-04-01T09:44:08;14.90;;;9.50;;
78838;SDS011;68405;47.190;27.558;2023-04-01T09:46:52;13.60;;;9.80;;
78838;SDS011;68405;47.190;27.558;2023-04-01T09:49:55;13.70;;;11.40;;
78838;SDS011;68405;47.190;27.558;2023-04-01T09:52:46;13.90;;;10.40;;
78838;SDS011;68405;47.190;27.558;2023-04-01T10:01:54;16.40;;;10.60;;
78838;SDS011;68405;47.190;27.558;2023-04-01T10:14:11;15.80;;;11.10;;
78838;SDS011;68405;47.190;27.558;2023-04-01T10:17:14;15.50;;;10.70;;
78838;SDS011;68405;47.190;27.558;2023-04-01T10:20:22;15.00;;;10.50;;
78838;SDS011;68405;47.190;27.558;2023-04-01T10:23:17;13.00;;;9.80;;
78838;SDS011;68405;47.190;27.558;2023-04-01T10:35:30;14.80;;;9.70;;
78838;SDS011;68405;47.190;27.558;2023-04-01T10:38:39;14.60;;;10.70;;
78838;SDS011;68405;47.190;27.558;2023-04-01T10:54:16;15.20;;;10.90;;
78838;SDS011;68405;47.190;27.558;2023-04-01T10:56:51;11.80;;;8.60;;
78838;SDS011;68405;47.190;27.558;2023-04-01T10:59:53;14.90;;;10.30;;
78838;SDS011;68405;47.190;27.558;2023-04-01T11:22:19;12.00;;;8.00;;
78838;SDS011;68405;47.190;27.558;2023-04-01T11:25:17;12.60;;;8.10;;
78838;SDS011;68405;47.190;27.558;2023-04-01T11:28:09;13.60;;;9.20;;
78838;SDS011;68405;47.190;27.558;2023-04-01T11:31:03;12.90;;;8.80;;
78838;SDS011;68405;47.190;27.558;2023-04-01T11:33:47;11.70;;;8.40;;
78838;SDS011;68405;47.190;27.558;2023-04-01T11:36:27;11.50;;;8.00;;
78838;SDS011;68405;47.190;27.558;2023-04-01T11:41:55;11.20;;;8.00;;
78838;SDS011;68405;47.190;27.558;2023-04-01T11:44:36;10.60;;;7.20;;
78838;SDS011;68405;47.190;27.558;2023-04-01T11:47:30;10.00;;;8.40;;
78838;SDS011;68405;47.190;27.558;2023-04-01T11:50:24;13.00;;;8.60;;
78838;SDS011;68405;47.190;27.558;2023-04-01T11:53:04;10.60;;;7.50;;
78838;SDS011;68405;47.190;27.558;2023-04-01T11:55:50;10.40;;;8.20;;
78838;SDS011;68405;47.190;27.558;2023-04-01T11:58:57;11.90;;;8.70;;
78838;SDS011;68405;47.190;27.558;2023-04-01T12:01:46;12.50;;;8.60;;
78838;SDS011;68405;47.190;27.558;2023-04-01T12:07:49;10.50;;;7.70;;
78838;SDS011;68405;47.190;27.558;2023-04-01T12:10:34;10.90;;;7.80;;
78838;SDS011;68405;47.190;27.558;2023-04-01T12:13:28;10.70;;;7.40;;
78838;SDS011;68405;47.190;27.558;2023-04-01T12:18:45;13.10;;;8.00;;
78838;SDS011;68405;47.190;27.558;2023-04-01T12:21:24;10.70;;;8.20;;
78838;SDS011;68405;47.190;27.558;2023-04-01T12:24:09;11.50;;;8.30;;
78838;SDS011;68405;47.190;27.558;2023-04-01T12:30:12;11.60;;;8.50;;
78838;SDS011;68405;47.190;27.558;2023-04-01T12:33:04;12.50;;;8.00;;
78838;SDS011;68405;47.190;27.558;2023-04-01T12:36:02;11.60;;;8.30;;
78838;SDS011;68405;47.190;27.558;2023-04-01T12:38:48;11.50;;;7.60;;
78838;SDS011;68405;47.190;27.558;2023-04-01T12:41:32;13.20;;;8.70;;
78838;SDS011;68405;47.190;27.558;2023-04-01T12:44:31;15.70;;;8.90;;
78838;SDS011;68405;47.190;27.558;2023-04-01T12:47:29;15.10;;;9.40;;
78838;SDS011;68405;47.190;27.558;2023-04-01T12:50:25;13.90;;;8.30;;
78838;SDS011;68405;47.190;27.558;2023-04-01T12:53:11;12.00;;;9.10;;
78838;SDS011;68405;47.190;27.558;2023-04-01T12:55:55;13.50;;;9.60;;
78838;SDS011;68405;47.190;27.558;2023-04-01T13:04:41;12.20;;;8.30;;
78838;SDS011;68405;47.190;27.558;2023-04-01T13:10:27;15.20;;;8.40;;
78838;SDS011;68405;47.190;27.558;2023-04-01T13:13:23;13.10;;;8.60;;
78838;SDS011;68405;47.190;27.558;2023-04-01T13:16:09;16.00;;;8.70;;
78838;SDS011;68405;47.190;27.558;2023-04-01T13:18:51;10.20;;;7.20;;
78838;SDS011;68405;47.190;27.558;2023-04-01T13:21:33;11.30;;;8.00;;
78838;SDS011;68405;47.190;27.558;2023-04-01T13:24:21;12.50;;;9.40;;
78838;SDS011;68405;47.190;27.558;2023-04-01T13:27:01;15.00;;;8.50;;
78838;SDS011;68405;47.190;27.558;2023-04-01T13:29:38;12.30;;;8.50;;
78838;SDS011;68405;47.190;27.558;2023-04-01T13:32:26;11.10;;;8.40;;
78838;SDS011;68405;47.190;27.558;2023-04-01T13:38:05;12.00;;;7.20;;
78838;SDS011;68405;47.190;27.558;2023-04-01T13:41:01;12.30;;;8.40;;
78838;SDS011;68405;47.190;27.558;2023-04-01T13:43:43;10.60;;;7.80;;
78838;SDS011;68405;47.190;27.558;2023-04-01T13:46:28;9.80;;;8.00;;
78838;SDS011;68405;47.190;27.558;2023-04-01T13:49:25;9.90;;;7.50;;
78838;SDS011;68405;47.190;27.558;2023-04-01T13:58:30;12.30;;;7.30;;
78838;SDS011;68405;47.190;27.558;2023-04-01T14:01:23;11.90;;;7.60;;
78838;SDS011;68405;47.190;27.558;2023-04-01T14:04:19;9.70;;;6.70;;
78838;SDS011;68405;47.190;27.558;2023-04-01T14:07:18;10.20;;;6.80;;
78838;SDS011;68405;47.190;27.558;2023-04-01T14:10:05;9.80;;;7.50;;
78838;SDS011;68405;47.190;27.558;2023-04-01T14:12:49;10.50;;;7.20;;
78838;SDS011;68405;47.190;27.558;2023-04-01T14:15:34;11.40;;;8.30;;
78838;SDS011;68405;47.190;27.558;2023-04-01T14:18:26;11.20;;;6.90;;
78838;SDS011;68405;47.190;27.558;2023-04-01T14:24:17;11.40;;;8.20;;
78838;SDS011;68405;47.190;27.558;2023-04-01T14:27:11;11.10;;;7.00;;
78838;SDS011;68405;47.190;27.558;2023-04-01T14:33:10;13.10;;;6.50;;
78838;SDS011;68405;47.190;27.558;2023-04-01T14:35:53;9.80;;;6.30;;
78838;SDS011;68405;47.190;27.558;2023-04-01T14:38:50;10.90;;;7.00;;
78838;SDS011;68405;47.190;27.558;2023-04-01T14:41:34;8.50;;;6.70;;
78838;SDS011;68405;47.190;27.558;2023-04-01T14:47:30;11.60;;;7.90;;
78838;SDS011;68405;47.190;27.558;2023-04-01T14:50:17;10.00;;;7.10;;
78838;SDS011;68405;47.190;27.558;2023-04-01T14:52:55;11.30;;;8.30;;
78838;SDS011;68405;47.190;27.558;2023-04-01T14:55:45;10.90;;;7.80;;
78838;SDS011;68405;47.190;27.558;2023-04-01T14:58:26;11.00;;;7.90;;
78838;SDS011;68405;47.190;27.558;2023-04-01T15:01:17;12.10;;;9.20;;
78838;SDS011;68405;47.190;27.558;2023-04-01T15:04:07;11.30;;;7.80;;
78838;SDS011;68405;47.190;27.558;2023-04-01T15:06:58;12.70;;;8.90;;
78838;SDS011;68405;47.190;27.558;2023-04-01T15:09:46;11.10;;;8.50;;
78838;SDS011;68405;47.190;27.558;2023-04-01T15:12:30;9.50;;;7.90;;
78838;SDS011;68405;47.190;27.558;2023-04-01T15:15:19;10.40;;;8.10;;
78838;SDS011;68405;47.190;27.558;2023-04-01T15:18:01;14.30;;;9.20;;
78838;SDS011;68405;47.190;27.558;2023-04-01T15:21:02;18.50;;;10.00;;
78838;SDS011;68405;47.190;27.558;2023-04-01T15:23:48;13.90;;;8.50;;
78838;SDS011;68405;47.190;27.558;2023-04-01T15:26:46;11.50;;;8.10;;
78838;SDS011;68405;47.190;27.558;2023-04-01T15:29:37;10.20;;;8.30;;
78838;SDS011;68405;47.190;27.558;2023-04-01T15:32:19;14.00;;;9.60;;
78838;SDS011;68405;47.190;27.558;2023-04-01T15:34:59;14.70;;;9.40;;
78838;SDS011;68405;47.190;27.558;2023-04-01T15:37:42;13.60;;;8.90;;
78838;SDS011;68405;47.190;27.558;2023-04-01T15:40:22;14.10;;;9.80;;
78838;SDS011;68405;47.190;27.558;2023-04-01T15:43:13;14.10;;;10.00;;
78838;SDS011;68405;47.190;27.558;2023-04-01T15:45:55;12.00;;;9.30;;
78838;SDS011;68405;47.190;27.558;2023-04-01T15:48:45;15.30;;;9.50;;
78838;SDS011;68405;47.190;27.558;2023-04-01T15:51:43;16.90;;;10.80;;
78838;SDS011;68405;47.190;27.558;2023-04-01T15:54:25;16.70;;;10.90;;
78838;SDS011;68405;47.190;27.558;2023-04-01T15:59:58;14.20;;;9.60;;
78838;SDS011;68405;47.190;27.558;2023-04-01T16:02:46;13.10;;;10.10;;
78838;SDS011;68405;47.190;27.558;2023-04-01T16:08:18;14.30;;;10.50;;
78838;SDS011;68405;47.190;27.558;2023-04-01T16:11:18;16.70;;;11.10;;
78838;SDS011;68405;47.190;27.558;2023-04-01T16:14:02;13.40;;;9.40;;
78838;SDS011;68405;47.190;27.558;2023-04-01T16:16:48;20.50;;;12.30;;
78838;SDS011;68405;47.190;27.558;2023-04-01T16:19:33;17.20;;;11.30;;
78838;SDS011;68405;47.190;27.558;2023-04-01T16:22:16;16.90;;;11.30;;
78838;SDS011;68405;47.190;27.558;2023-04-01T16:24:55;15.50;;;10.60;;
78838;SDS011;68405;47.190;27.558;2023-04-01T16:27:46;17.50;;;10.90;;
78838;SDS011;68405;47.190;27.558;2023-04-01T16:30:26;13.00;;;9.20;;
78838;SDS011;68405;47.190;27.558;2023-04-01T16:33:09;16.10;;;10.70;;
78838;SDS011;68405;47.190;27.558;2023-04-01T16:35:46;16.10;;;10.60;;
78838;SDS011;68405;47.190;27.558;2023-04-01T16:38:24;16.30;;;11.00;;
78838;SDS011;68405;47.190;27.558;2023-04-01T16:41:10;17.90;;;11.80;;
78838;SDS011;68405;47.190;27.558;2023-04-01T16:43:46;15.10;;;10.30;;
78838;SDS011;68405;47.190;27.558;2023-04-01T16:46:31;15.00;;;10.90;;
78838;SDS011;68405;47.190;27.558;2023-04-01T16:49:22;15.60;;;9.20;;
78838;SDS011;68405;47.190;27.558;2023-04-01T16:52:05;20.70;;;10.90;;
78838;SDS011;68405;47.190;27.558;2023-04-01T16:54:47;12.90;;;9.30;;
78838;SDS011;68405;47.190;27.558;2023-04-01T16:57:30;12.40;;;9.80;;
78838;SDS011;68405;47.190;27.558;2023-04-01T17:00:17;13.80;;;10.00;;
78838;SDS011;68405;47.190;27.558;2023-04-01T17:03:02;15.10;;;10.90;;
78838;SDS011;68405;47.190;27.558;2023-04-01T17:05:49;15.40;;;11.00;;
78838;SDS011;68405;47.190;27.558;2023-04-01T17:08:36;14.40;;;11.20;;
78838;SDS011;68405;47.190;27.558;2023-04-01T17:11:29;15.20;;;9.40;;
78838;SDS011;68405;47.190;27.558;2023-04-01T17:14:10;20.20;;;9.70;;
78838;SDS011;68405;47.190;27.558;2023-04-01T17:20:00;14.80;;;10.70;;
78838;SDS011;68405;47.190;27.558;2023-04-01T17:22:52;19.10;;;13.10;;
78838;SDS011;68405;47.190;27.558;2023-04-01T17:25:36;20.80;;;14.20;;
78838;SDS011;68405;47.190;27.558;2023-04-01T17:28:30;18.20;;;12.50;;
78838;SDS011;68405;47.190;27.558;2023-04-01T17:31:14;16.10;;;11.50;;
78838;SDS011;68405;47.190;27.558;2023-04-01T17:33:59;16.80;;;12.40;;
78838;SDS011;68405;47.190;27.558;2023-04-01T17:36:48;17.40;;;12.30;;
78838;SDS011;68405;47.190;27.558;2023-04-01T17:39:43;19.80;;;12.70;;
78838;SDS011;68405;47.190;27.558;2023-04-01T17:42:27;17.90;;;12.80;;
78838;SDS011;68405;47.190;27.558;2023-04-01T17:45:16;18.30;;;13.00;;
78838;SDS011;68405;47.190;27.558;2023-04-01T17:48:03;19.30;;;13.00;;
78838;SDS011;68405;47.190;27.558;2023-04-01T17:50:56;16.30;;;12.60;;
78838;SDS011;68405;47.190;27.558;2023-04-01T17:53:39;23.30;;;13.90;;
78838;SDS011;68405;47.190;27.558;2023-04-01T17:56:23;18.30;;;12.70;;
78838;SDS011;68405;47.190;27.558;2023-04-01T17:59:05;22.90;;;13.50;;
78838;SDS011;68405;47.190;27.558;2023-04-01T18:01:48;19.10;;;13.20;;
78838;SDS011;68405;47.190;27.558;2023-04-01T18:04:40;17.00;;;12.80;;
78838;SDS011;68405;47.190;27.558;2023-04-01T18:07:29;15.80;;;12.40;;
78838;SDS011;68405;47.190;27.558;2023-04-01T18:10:20;19.70;;;13.20;;